Time;durP1;ratioP1;P1;durP2;ratioP2;P2;SDS_P1;SDS_P2;PMS_P1;PMS_P2;Temp;Humidity;BMP_temperature;BMP_pressure;BME280_temperature;BME280_humidity;BME280_pressure;Samples;Min_cycle;Max_cycle;Signal;HPM_P1;HPM_P2
2021/08/14 00:00:05;;;;;;;6.45;4.60;;;;;;;24.09;45.64;100436.67;1814621;77;21084;-65
2021/08/14 00:02:31;;;;;;;5.58;4.42;;;;;;;24.07;45.73;100438.80;1821445;77;21034;-65
2021/08/14 00:04:58;;;;;;;5.20;4.70;;;;;;;24.06;45.81;100442.57;1802722;77;21057;-65
2021/08/14 00:07:26;;;;;;;8.13;5.25;;;;;;;24.03;45.91;100443.88;1802659;77;21046;-65
2021/08/14 00:09:52;;;;;;;8.78;5.22;;;;;;;24.04;45.93;100445.52;1794922;79;21549;-65
2021/08/14 00:12:19;;;;;;;6.40;5.60;;;;;;;24.01;45.96;100443.30;1766522;79;21066;-66
2021/08/14 00:14:46;;;;;;;6.25;5.15;;;;;;;24.00;46.04;100445.71;1802815;77;21007;-65
2021/08/14 00:17:12;;;;;;;6.75;5.25;;;;;;;23.97;46.15;100444.85;1838338;77;21477;-65
2021/08/14 00:19:40;;;;;;;6.75;5.25;;;;;;;23.95;46.28;100438.81;1847831;77;21182;-65
2021/08/14 00:22:06;;;;;;;6.10;5.33;;;;;;;23.93;46.36;100439.08;1806392;77;21022;-65
2021/08/14 00:24:32;;;;;;;7.45;5.00;;;;;;;23.92;46.43;100438.77;1803114;77;21558;-67
2021/08/14 00:27:00;;;;;;;7.78;4.97;;;;;;;23.91;46.55;100443.07;1834354;77;21037;-65
2021/08/14 00:29:26;;;;;;;7.90;5.58;;;;;;;23.89;46.67;100439.77;1803035;77;21026;-65
2021/08/14 00:31:53;;;;;;;6.08;5.00;;;;;;;23.87;46.70;100448.14;1834458;77;21882;-65
2021/08/14 00:34:19;;;;;;;6.12;5.20;;;;;;;23.86;46.73;100449.77;1802689;77;20994;-65
2021/08/14 00:36:45;;;;;;;7.25;5.42;;;;;;;23.84;46.80;100451.89;1802990;77;21069;-65
2021/08/14 00:39:13;;;;;;;6.72;5.40;;;;;;;23.82;46.85;100456.20;1846257;77;21492;-64
2021/08/14 00:41:40;;;;;;;6.70;5.30;;;;;;;23.80;46.96;100451.54;1845796;77;21014;-65
2021/08/14 00:44:06;;;;;;;5.72;4.70;;;;;;;23.79;46.99;100458.02;1808013;77;21117;-65
2021/08/14 00:46:33;;;;;;;7.67;5.20;;;;;;;23.78;47.09;100460.93;1802747;77;21042;-65
2021/08/14 00:49:00;;;;;;;5.42;4.87;;;;;;;23.75;47.15;100461.70;1804775;77;21069;-65
2021/08/14 00:51:27;;;;;;;5.45;4.92;;;;;;;23.74;47.24;100462.78;1818080;77;20993;-64
2021/08/14 00:53:53;;;;;;;7.12;5.05;;;;;;;23.73;47.31;100464.36;1840091;77;21073;-65
2021/08/14 00:56:25;;;;;;;5.95;5.35;;;;;;;23.72;47.44;100468.13;1792370;78;21130;-65
2021/08/14 00:58:53;;;;;;;6.03;5.42;;;;;;;23.69;47.53;100468.08;1818376;78;27671;-65
2021/08/14 01:01:25;;;;;;;8.25;5.47;;;;;;;23.67;47.59;100472.92;1804098;78;21069;-64
2021/08/14 01:03:54;;;;;;;5.97;5.22;;;;;;;23.64;47.62;100473.41;1837337;78;21065;-65
2021/08/14 01:06:21;;;;;;;5.80;5.20;;;;;;;23.63;47.70;100466.86;1753021;80;21039;-66
2021/08/14 01:08:49;;;;;;;6.87;5.47;;;;;;;23.61;47.77;100467.09;1749823;80;21100;-66
2021/08/14 01:11:16;;;;;;;5.65;4.85;;;;;;;23.60;47.85;100466.78;1749811;80;21598;-66
2021/08/14 01:13:45;;;;;;;7.42;5.60;;;;;;;23.58;47.94;100464.02;1749773;80;21062;-64
2021/08/14 01:16:12;;;;;;;7.58;5.47;;;;;;;23.56;47.97;100465.61;1749921;80;21054;-69
2021/08/14 01:18:44;;;;;;;6.90;5.55;;;;;;;23.54;48.04;100471.27;1749961;80;21058;-66
2021/08/14 01:21:18;;;;;;;7.10;5.37;;;;;;;23.53;48.11;100471.52;1749936;80;21102;-65
2021/08/14 01:23:47;;;;;;;5.90;5.30;;;;;;;23.52;48.27;100472.57;1734542;80;21096;-66
2021/08/14 01:26:14;;;;;;;6.35;5.25;;;;;;;23.51;48.38;100473.65;1760458;80;21054;-66
2021/08/14 01:28:41;;;;;;;6.35;5.30;;;;;;;23.48;48.48;100472.75;1750363;80;21047;-65
2021/08/14 01:31:08;;;;;;;6.97;5.45;;;;;;;23.47;48.56;100474.64;1749970;80;21117;-65
2021/08/14 01:33:37;;;;;;;7.75;5.45;;;;;;;23.44;48.60;100477.81;1749836;80;22016;-65
2021/08/14 01:36:11;;;;;;;7.60;5.10;;;;;;;23.44;48.67;100481.06;1749756;80;21075;-66
2021/08/14 01:38:52;;;;;;;6.78;4.75;;;;;;;23.42;48.78;100477.77;1749948;80;21007;-65
2021/08/14 01:41:19;;;;;;;6.90;5.75;;;;;;;23.40;48.91;100476.64;1761711;80;21055;-65
2021/08/14 01:44:08;;;;;;;6.37;5.25;;;;;;;23.39;48.96;100479.58;1753642;80;21058;-65
2021/08/14 01:46:39;;;;;;;6.87;5.25;;;;;;;23.35;49.06;100478.70;1749942;80;22124;-65
2021/08/14 01:49:05;;;;;;;6.47;4.90;;;;;;;23.34;49.09;100481.11;1749786;80;21066;-66
2021/08/14 01:51:31;;;;;;;6.80;5.12;;;;;;;23.31;49.11;100477.53;1749907;80;21102;-65
2021/08/14 01:53:59;;;;;;;7.30;5.60;;;;;;;23.30;49.20;100480.47;1755294;80;21045;-66
2021/08/14 01:56:28;;;;;;;6.03;4.72;;;;;;;23.28;49.23;100477.17;1794703;79;21542;-65
2021/08/14 01:58:55;;;;;;;5.15;4.58;;;;;;;23.27;49.28;100480.92;1778422;80;21501;-64
2021/08/14 02:01:25;;;;;;;8.48;5.53;;;;;;;23.25;49.33;100476.27;1783197;80;21034;-65
2021/08/14 02:03:51;;;;;;;7.08;4.92;;;;;;;23.24;49.42;100475.99;1802690;77;21038;-66
2021/08/14 02:06:20;;;;;;;10.45;5.85;;;;;;;23.21;49.48;100475.91;1764596;79;20999;-65
2021/08/14 02:08:47;;;;;;;6.72;5.35;;;;;;;23.20;49.57;100474.27;1774087;80;21108;-64
2021/08/14 02:11:17;;;;;;;5.30;4.80;;;;;;;23.19;49.65;100471.79;1768519;79;21085;-65
2021/08/14 02:13:46;;;;;;;7.42;5.05;;;;;;;23.16;49.71;100471.20;1777141;80;21034;-63
2021/08/14 02:16:13;;;;;;;7.78;4.87;;;;;;;23.15;49.75;100470.08;1760454;80;21032;-65
2021/08/14 02:18:40;;;;;;;6.75;5.00;;;;;;;23.14;49.80;100469.77;1779611;79;21068;-65
2021/08/14 02:21:07;;;;;;;6.30;5.70;;;;;;;23.12;49.84;100465.95;1764598;79;21011;-65
2021/08/14 02:23:34;;;;;;;7.03;5.40;;;;;;;23.10;49.94;100467.23;1767229;80;21131;-65
2021/08/14 02:26:01;;;;;;;6.55;5.00;;;;;;;23.09;50.00;100465.59;1772497;80;21025;-65
2021/08/14 02:28:28;;;;;;;6.62;5.45;;;;;;;23.08;50.04;100470.70;1764452;80;21084;-67
2021/08/14 02:30:56;;;;;;;7.67;5.53;;;;;;;23.06;50.12;100480.95;1790567;79;21010;-66
2021/08/14 02:33:23;;;;;;;5.85;5.25;;;;;;;23.05;50.13;100472.54;1790461;79;21517;-68
2021/08/14 02:35:50;;;;;;;6.75;5.85;;;;;;;23.04;50.17;100474.94;1790720;79;21092;-65
2021/08/14 02:38:16;;;;;;;5.67;4.87;;;;;;;23.03;50.21;100478.72;1789859;79;20998;-66
2021/08/14 02:40:49;;;;;;;6.97;5.33;;;;;;;23.01;50.20;100474.03;1811867;77;21176;-65
2021/08/14 02:43:14;;;;;;;7.72;5.42;;;;;;;23.01;50.18;100474.03;1835044;77;21072;-66
2021/08/14 02:45:41;;;;;;;8.43;5.65;;;;;;;22.99;50.19;100468.02;1847581;77;21076;-64
2021/08/14 02:48:09;;;;;;;7.50;4.78;;;;;;;22.98;50.08;100468.53;1847511;77;21029;-64
2021/08/14 02:50:37;;;;;;;6.50;5.62;;;;;;;22.97;49.89;100468.25;1847410;77;21014;-66
2021/08/14 02:53:03;;;;;;;5.67;5.17;;;;;;;22.95;49.85;100464.95;1812567;77;21021;-64
2021/08/14 02:55:31;;;;;;;7.20;5.75;;;;;;;22.95;49.80;100472.54;1803913;78;21532;-66
2021/08/14 02:57:59;;;;;;;8.43;5.55;;;;;;;22.93;49.72;100469.78;1848256;77;21013;-64
2021/08/14 03:00:29;;;;;;;8.13;6.40;;;;;;;22.93;49.66;100471.95;1822542;77;21115;-65
2021/08/14 03:02:56;;;;;;;9.83;6.40;;;;;;;22.91;49.54;100478.13;1822581;77;20998;-63
2021/08/14 03:05:25;;;;;;;7.15;5.62;;;;;;;22.91;49.46;100470.54;1822556;77;21553;-66
2021/08/14 03:07:52;;;;;;;6.45;5.58;;;;;;;22.89;49.40;100473.98;1809536;78;21001;-65
2021/08/14 03:10:20;;;;;;;6.17;5.58;;;;;;;22.88;49.39;100470.99;1842274;77;20994;-65
2021/08/14 03:12:48;;;;;;;6.80;5.08;;;;;;;22.86;49.42;100475.28;1821534;77;20974;-66
2021/08/14 03:15:15;;;;;;;8.75;5.50;;;;;;;22.85;49.41;100464.67;1783805;78;21109;-64
2021/08/14 03:17:43;;;;;;;8.63;5.30;;;;;;;22.84;49.41;100472.52;1844819;77;21022;-65
2021/08/14 03:20:11;;;;;;;8.10;5.62;;;;;;;22.83;49.38;100472.20;1824081;77;21053;-66
2021/08/14 03:22:37;;;;;;;6.83;5.40;;;;;;;22.81;49.33;100469.72;1842167;77;21021;-65
2021/08/14 03:25:08;;;;;;;8.43;5.65;;;;;;;22.80;49.26;100470.79;1849887;77;21104;-65
2021/08/14 03:27:34;;;;;;;9.28;5.53;;;;;;;22.78;49.16;100471.02;1839760;77;20995;-65
2021/08/14 03:30:04;;;;;;;7.20;5.67;;;;;;;22.77;49.07;100469.89;1852606;77;21068;-65
2021/08/14 03:32:34;;;;;;;7.97;5.15;;;;;;;22.76;49.05;100463.66;1837798;77;21029;-64
2021/08/14 03:35:01;;;;;;;6.40;5.72;;;;;;;22.74;49.11;100465.77;1832496;77;21049;-64
2021/08/14 03:37:27;;;;;;;7.30;5.40;;;;;;;22.73;49.11;100466.81;1856496;77;21019;-65
2021/08/14 03:39:54;;;;;;;8.43;7.35;;;;;;;22.72;49.09;100467.88;1856525;77;21561;-66
2021/08/14 03:42:22;;;;;;;8.43;7.12;;;;;;;22.72;49.05;100472.48;1828132;77;21061;-66
2021/08/14 03:44:49;;;;;;;7.90;6.42;;;;;;;22.72;48.99;100469.77;1783849;78;21081;-65
2021/08/14 03:47:15;;;;;;;8.33;6.17;;;;;;;22.71;48.99;100464.05;1829107;77;21028;-66
2021/08/14 03:49:42;;;;;;;9.55;6.50;;;;;;;22.71;48.99;100462.69;1822651;77;21126;-65
2021/08/14 03:52:08;;;;;;;7.45;6.15;;;;;;;22.72;48.93;100468.42;1822403;77;21005;-65
2021/08/14 03:54:35;;;;;;;8.90;6.03;;;;;;;22.72;48.85;100464.36;1813774;78;21050;-66
2021/08/14 03:57:05;;;;;;;6.03;5.47;;;;;;;22.72;48.86;100463.82;1856336;77;20985;-65
2021/08/14 03:59:31;;;;;;;6.62;5.75;;;;;;;22.73;48.85;100461.93;1832522;77;21044;-66
2021/08/14 04:01:59;;;;;;;5.85;5.25;;;;;;;22.74;48.88;100462.24;1840432;77;21115;-65
2021/08/14 04:04:25;;;;;;;5.80;5.17;;;;;;;22.74;48.91;100468.48;1806405;78;21572;-66
2021/08/14 04:09:22;;;;;;;7.78;5.45;;;;;;;22.81;48.98;100469.72;1814967;79;23185;-64
2021/08/14 04:11:50;;;;;;;7.85;5.80;;;;;;;22.73;49.04;100470.87;1774345;80;21081;-65
2021/08/14 04:14:18;;;;;;;8.68;5.95;;;;;;;22.76;49.05;100464.19;1773491;80;21863;-66
2021/08/14 04:16:44;;;;;;;7.85;5.37;;;;;;;22.78;49.02;100466.14;1777371;80;20978;-65
2021/08/14 04:19:12;;;;;;;8.55;5.83;;;;;;;22.81;49.06;100467.55;1746283;80;21068;-65
2021/08/14 04:21:38;;;;;;;8.18;5.55;;;;;;;22.83;49.01;100473.05;1782931;80;21059;-65
2021/08/14 04:24:06;;;;;;;8.30;6.25;;;;;;;22.84;49.05;100473.33;1778989;80;21481;-68
2021/08/14 04:26:32;;;;;;;6.60;5.90;;;;;;;22.88;49.09;100481.29;1760222;80;21103;-68
2021/08/14 04:28:59;;;;;;;6.85;5.67;;;;;;;22.89;49.43;100478.89;1788047;80;21001;-65
2021/08/14 04:31:26;;;;;;;7.37;5.28;;;;;;;22.90;49.65;100479.70;1759409;80;21048;-67
2021/08/14 04:33:52;;;;;;;6.22;5.30;;;;;;;22.93;49.83;100476.55;1770698;80;21021;-67
2021/08/14 04:36:19;;;;;;;9.10;5.28;;;;;;;22.94;49.80;100480.36;1766466;80;21028;-66
2021/08/14 04:38:48;;;;;;;8.00;5.70;;;;;;;22.98;49.86;100483.44;1766832;80;21073;-68
2021/08/14 04:41:15;;;;;;;8.00;5.80;;;;;;;23.00;49.90;100479.96;1778291;80;21068;-67
2021/08/14 04:43:41;;;;;;;8.98;5.62;;;;;;;23.00;49.89;100485.38;1776917;80;21057;-64
2021/08/14 04:46:07;;;;;;;6.35;5.10;;;;;;;23.01;50.19;100483.52;1772094;80;21088;-66
2021/08/14 04:48:35;;;;;;;8.43;5.42;;;;;;;23.04;50.68;100481.17;1782504;80;22035;-64
2021/08/14 04:51:01;;;;;;;7.62;5.85;;;;;;;23.13;50.82;100485.20;1755955;80;21714;-66
2021/08/14 04:53:28;;;;;;;6.28;5.42;;;;;;;23.25;50.87;100478.98;1768964;80;21053;-66
2021/08/14 04:55:54;;;;;;;7.25;5.33;;;;;;;23.37;51.02;100483.88;1776773;80;21072;-64
2021/08/14 04:58:20;;;;;;;7.08;5.45;;;;;;;23.49;51.16;100483.91;1783841;80;21478;-65
2021/08/14 05:00:47;;;;;;;7.97;5.37;;;;;;;23.60;51.20;100475.45;1789263;80;20990;-65
2021/08/14 05:03:17;;;;;;;8.70;5.50;;;;;;;23.71;51.12;100478.16;1758563;80;21046;-65
2021/08/14 05:05:44;;;;;;;9.10;6.05;;;;;;;23.82;50.94;100471.66;1762002;80;21030;-65
2021/08/14 05:08:10;;;;;;;6.60;5.28;;;;;;;23.92;50.73;100475.94;1779874;80;21070;-65
2021/08/14 05:10:38;;;;;;;6.87;5.58;;;;;;;24.01;50.55;100473.16;1752265;80;21554;-64
2021/08/14 05:13:05;;;;;;;13.53;6.42;;;;;;;24.11;50.35;100473.89;1732974;80;21042;-65
2021/08/14 05:15:32;;;;;;;7.22;5.30;;;;;;;24.21;50.10;100474.64;1743976;79;21145;-65
2021/08/14 05:17:59;;;;;;;8.10;5.50;;;;;;;24.29;49.88;100475.61;1759640;80;20979;-65
2021/08/14 05:20:25;;;;;;;5.67;5.08;;;;;;;24.36;49.79;100477.66;1747861;80;21553;-65
2021/08/14 05:22:53;;;;;;;6.60;5.10;;;;;;;24.44;49.69;100483.23;1745498;80;21051;-65
2021/08/14 05:25:20;;;;;;;6.12;5.42;;;;;;;24.50;49.58;100479.01;1743190;80;21070;-65
2021/08/14 05:27:47;;;;;;;5.80;5.20;;;;;;;24.57;49.48;100479.42;1738076;80;21090;-65
2021/08/14 05:30:14;;;;;;;6.37;5.35;;;;;;;24.63;49.44;100478.47;1753458;80;21582;-66
2021/08/14 05:32:40;;;;;;;6.47;5.53;;;;;;;24.70;49.31;100471.79;1760390;80;21006;-65
2021/08/14 05:35:09;;;;;;;6.03;5.10;;;;;;;24.76;49.21;100471.89;1774805;80;21471;-65
2021/08/14 05:37:35;;;;;;;6.58;5.00;;;;;;;24.82;49.12;100475.84;1774032;80;21069;-64
2021/08/14 05:40:04;;;;;;;5.35;4.85;;;;;;;24.88;49.02;100481.64;1768729;80;21853;-65
2021/08/14 05:42:31;;;;;;;6.03;5.10;;;;;;;24.93;48.91;100481.70;1765784;80;21068;-66
2021/08/14 05:44:58;;;;;;;5.92;4.87;;;;;;;24.99;48.80;100482.62;1773797;80;21000;-64
2021/08/14 05:47:26;;;;;;;7.10;4.87;;;;;;;25.05;48.69;100481.67;1769447;80;21006;-65
2021/08/14 05:49:52;;;;;;;6.03;5.20;;;;;;;25.09;48.66;100486.90;1732797;80;21527;-65
2021/08/14 05:52:19;;;;;;;6.60;4.78;;;;;;;25.15;48.58;100481.52;1742612;80;21137;-66
2021/08/14 05:54:47;;;;;;;5.55;4.97;;;;;;;25.19;48.49;100482.16;1763671;80;21089;-66
2021/08/14 05:57:13;;;;;;;6.53;4.92;;;;;;;25.25;48.39;100481.74;1748264;80;21555;-65
2021/08/14 05:59:41;;;;;;;6.60;5.00;;;;;;;25.30;48.29;100477.72;1761114;80;21049;-65
2021/08/14 06:02:07;;;;;;;6.37;5.33;;;;;;;25.36;48.15;100479.45;1767203;80;21104;-66
2021/08/14 06:04:33;;;;;;;8.68;5.62;;;;;;;25.40;48.05;100486.06;1769818;80;21542;-65
2021/08/14 06:07:00;;;;;;;7.65;5.25;;;;;;;25.45;48.01;100483.95;1753411;80;21018;-65
2021/08/14 06:09:27;;;;;;;5.92;5.17;;;;;;;25.49;47.90;100485.09;1766485;80;21066;-65
2021/08/14 06:11:53;;;;;;;6.35;4.53;;;;;;;25.55;47.75;100487.35;1763288;80;21050;-66
2021/08/14 06:14:21;;;;;;;5.95;5.33;;;;;;;25.59;47.70;100489.86;1757982;80;21002;-65
2021/08/14 06:16:48;;;;;;;8.18;5.20;;;;;;;25.63;47.64;100491.00;1757028;80;21147;-64
2021/08/14 06:19:14;;;;;;;6.72;5.10;;;;;;;25.66;47.56;100489.16;1762661;80;21569;-64
2021/08/14 06:21:41;;;;;;;6.12;5.53;;;;;;;25.73;47.50;100490.33;1754580;80;21058;-64
2021/08/14 06:24:07;;;;;;;6.08;5.25;;;;;;;25.76;47.44;100487.11;1776504;80;21068;-65
2021/08/14 06:26:34;;;;;;;6.20;5.17;;;;;;;25.79;47.37;100486.08;1779229;80;21066;-64
2021/08/14 06:29:00;;;;;;;7.92;5.42;;;;;;;25.83;47.34;100481.78;1753163;80;21562;-65
2021/08/14 06:31:27;;;;;;;5.58;4.97;;;;;;;25.88;47.26;100478.29;1779228;80;21009;-65
2021/08/14 06:33:53;;;;;;;7.65;5.33;;;;;;;25.91;47.17;100479.19;1763492;80;21013;-67
2021/08/14 06:36:19;;;;;;;7.03;5.85;;;;;;;25.95;47.00;100480.33;1770540;80;21021;-65
2021/08/14 06:38:46;;;;;;;6.62;5.50;;;;;;;25.99;46.72;100480.11;1771780;80;21084;-66
2021/08/14 06:41:12;;;;;;;6.58;5.12;;;;;;;26.03;46.58;100482.60;1780966;80;21095;-65
2021/08/14 06:43:39;;;;;;;5.65;5.03;;;;;;;26.07;46.55;100483.74;1762052;80;21073;-64
2021/08/14 06:46:05;;;;;;;6.22;5.60;;;;;;;26.11;46.37;100483.25;1775726;80;22045;-65
2021/08/14 06:48:35;;;;;;;6.85;4.85;;;;;;;26.14;46.23;100485.48;1774748;80;21029;-70
2021/08/14 06:51:03;;;;;;;6.28;5.05;;;;;;;26.18;46.25;100485.25;1764548;80;21617;-67
2021/08/14 06:53:31;;;;;;;9.55;5.83;;;;;;;26.20;46.38;100485.27;1762322;80;21087;-66
2021/08/14 06:55:58;;;;;;;6.00;4.83;;;;;;;26.23;46.29;100482.05;1773899;80;21545;-67
2021/08/14 06:58:24;;;;;;;5.40;4.90;;;;;;;26.27;46.18;100479.65;1773960;80;21053;-67
2021/08/14 07:00:51;;;;;;;6.45;5.10;;;;;;;26.31;45.86;100475.85;1773198;80;21037;-69
2021/08/14 07:03:17;;;;;;;6.35;4.50;;;;;;;26.35;45.52;100480.55;1775210;80;21525;-67
2021/08/14 07:05:44;;;;;;;5.95;4.53;;;;;;;26.39;45.29;100483.05;1772876;80;21152;-68
2021/08/14 07:08:10;;;;;;;5.85;5.28;;;;;;;26.43;45.17;100475.19;1759818;80;21025;-67
2021/08/14 07:10:38;;;;;;;7.12;5.00;;;;;;;26.46;44.98;100471.94;1762470;80;21019;-67
2021/08/14 07:13:05;;;;;;;5.20;4.70;;;;;;;26.49;44.72;100477.70;1768050;80;22056;-68
2021/08/14 07:15:31;;;;;;;6.00;4.72;;;;;;;26.53;44.51;100469.03;1743987;80;21527;-69
2021/08/14 07:17:58;;;;;;;5.00;4.30;;;;;;;26.56;44.27;100476.16;1760400;80;21317;-69
2021/08/14 07:20:25;;;;;;;4.85;4.37;;;;;;;26.59;44.26;100473.48;1750679;80;21034;-64
2021/08/14 07:22:53;;;;;;;7.62;4.70;;;;;;;26.63;44.13;100470.52;1763812;80;21037;-69
2021/08/14 07:25:20;;;;;;;5.37;4.50;;;;;;;26.66;44.23;100472.20;1767849;80;21090;-64
2021/08/14 07:27:46;;;;;;;6.25;4.55;;;;;;;26.70;44.13;100469.78;1771836;80;21092;-65
2021/08/14 07:30:13;;;;;;;4.47;4.08;;;;;;;26.73;43.74;100467.88;1757296;80;21144;-63
2021/08/14 07:32:40;;;;;;;5.20;4.05;;;;;;;26.76;43.66;100468.74;1768591;80;21038;-64
2021/08/14 07:35:08;;;;;;;4.80;4.22;;;;;;;26.79;43.45;100464.16;1750090;80;21226;-63
2021/08/14 07:37:34;;;;;;;5.28;4.15;;;;;;;26.81;43.33;100455.69;1769467;80;21077;-63
2021/08/14 07:40:01;;;;;;;6.37;3.90;;;;;;;26.84;43.21;100456.00;1774204;80;21198;-63
2021/08/14 07:42:28;;;;;;;5.12;3.87;;;;;;;26.86;43.01;100459.84;1767010;80;21138;-62
2021/08/14 07:44:55;;;;;;;6.00;4.03;;;;;;;26.88;42.68;100457.13;1755054;80;20987;-62
2021/08/14 07:47:21;;;;;;;5.00;4.33;;;;;;;26.92;42.42;100452.53;1750534;80;21074;-63
2021/08/14 07:49:48;;;;;;;5.42;4.08;;;;;;;26.93;42.25;100456.91;1768761;80;21042;-62
2021/08/14 07:52:14;;;;;;;4.50;3.85;;;;;;;26.96;41.94;100450.92;1749612;80;21082;-63
2021/08/14 07:54:40;;;;;;;7.53;5.00;;;;;;;26.98;41.87;100449.57;1773811;80;21173;-62
2021/08/14 07:57:07;;;;;;;10.95;5.03;;;;;;;27.00;41.80;100451.50;1770058;80;21054;-63
2021/08/14 07:59:33;;;;;;;11.43;4.97;;;;;;;27.02;42.73;100442.55;1755486;80;21781;-62
2021/08/14 08:01:59;;;;;;;8.58;4.60;;;;;;;27.05;43.12;100450.19;1774647;80;21089;-62
2021/08/14 08:04:26;;;;;;;8.58;4.30;;;;;;;27.07;43.36;100437.11;1766674;80;21044;-64
2021/08/14 08:06:52;;;;;;;8.28;4.78;;;;;;;27.11;43.23;100446.14;1772970;80;21134;-63
2021/08/14 08:09:19;;;;;;;9.60;4.75;;;;;;;27.12;42.77;100445.89;1768203;80;22042;-62
2021/08/14 08:11:46;;;;;;;9.80;4.97;;;;;;;27.14;43.14;100440.99;1758083;80;21073;-63
2021/08/14 08:14:12;;;;;;;9.65;4.17;;;;;;;27.17;43.27;100436.36;1752261;80;21054;-64
2021/08/14 08:16:38;;;;;;;6.35;4.22;;;;;;;27.18;42.43;100439.39;1767036;80;21008;-62
2021/08/14 08:19:05;;;;;;;6.08;4.08;;;;;;;27.21;42.32;100438.03;1744015;80;21574;-61
2021/08/14 08:21:31;;;;;;;5.10;3.58;;;;;;;27.23;41.61;100441.31;1757455;80;21021;-62
2021/08/14 08:23:57;;;;;;;5.85;4.10;;;;;;;27.24;41.37;100439.73;1755430;80;21152;-61
2021/08/14 08:26:24;;;;;;;6.30;3.98;;;;;;;27.28;41.47;100444.67;1745210;80;21077;-63
2021/08/14 08:28:52;;;;;;;3.95;3.55;;;;;;;27.30;41.38;100446.05;1768558;80;21015;-62
2021/08/14 08:31:18;;;;;;;9.60;5.12;;;;;;;27.31;40.16;100443.58;1760196;80;21071;-63
2021/08/14 08:33:44;;;;;;;8.43;4.22;;;;;;;27.32;40.66;100432.95;1757624;79;21026;-65
2021/08/14 08:36:11;;;;;;;9.65;5.15;;;;;;;27.35;41.05;100435.17;1766425;79;21091;-62
2021/08/14 08:38:40;;;;;;;9.18;4.45;;;;;;;27.37;41.75;100430.27;1748213;80;21085;-63
2021/08/14 08:41:08;;;;;;;13.40;4.53;;;;;;;27.41;42.37;100431.91;1758639;80;21038;-64
2021/08/14 08:43:35;;;;;;;9.15;4.30;;;;;;;27.43;42.41;100427.04;1756542;80;21766;-62
2021/08/14 08:46:03;;;;;;;8.95;4.40;;;;;;;27.44;42.40;100426.75;1753510;80;21086;-64
2021/08/14 08:48:30;;;;;;;6.35;3.58;;;;;;;27.47;42.56;100426.78;1756946;80;21089;-63
2021/08/14 08:51:03;;;;;;;5.92;4.40;;;;;;;27.49;41.73;100423.25;1767003;80;21073;-63
2021/08/14 08:53:25;;;;;;;4.85;3.70;;;;;;;27.52;42.38;100421.34;1762644;80;21593;-65
2021/08/14 08:55:53;;;;;;;6.47;3.92;;;;;;;27.53;40.86;100413.45;1766598;80;21133;-64
2021/08/14 08:58:19;;;;;;;8.08;4.75;;;;;;;27.57;41.17;100415.11;1753395;80;22019;-64
2021/08/14 09:00:45;;;;;;;7.33;3.87;;;;;;;27.60;41.79;100411.31;1752376;80;21050;-64
2021/08/14 09:03:15;;;;;;;7.17;4.37;;;;;;;27.62;41.97;100405.04;1763690;80;21031;-66
2021/08/14 09:05:51;;;;;;;7.70;4.65;;;;;;;27.65;41.97;100403.13;1763701;80;21037;-65
2021/08/14 09:08:18;;;;;;;5.37;4.05;;;;;;;27.67;42.01;100407.52;1762967;80;21840;-64
2021/08/14 09:10:46;;;;;;;4.53;3.60;;;;;;;27.69;41.91;100399.87;1748941;80;21119;-65
2021/08/14 09:13:17;;;;;;;6.00;3.42;;;;;;;27.71;40.08;100405.34;1752912;80;21014;-64
2021/08/14 09:15:43;;;;;;;4.90;3.62;;;;;;;27.73;38.22;100409.98;1748938;80;21288;-64
2021/08/14 09:18:14;;;;;;;5.08;3.33;;;;;;;27.74;37.20;100410.28;1745007;80;21085;-67
2021/08/14 09:20:53;;;;;;;6.55;3.27;;;;;;;27.75;37.58;100407.00;1752203;80;21123;-64
2021/08/14 09:23:22;;;;;;;4.25;3.25;;;;;;;27.79;38.40;100402.64;1769869;80;21523;-66
2021/08/14 09:25:56;;;;;;;6.00;3.50;;;;;;;27.82;38.56;100402.13;1757268;79;21049;-65
2021/08/14 09:28:34;;;;;;;3.98;3.42;;;;;;;27.84;38.15;100396.66;1741984;80;21062;-63
2021/08/14 09:31:05;;;;;;;5.58;3.35;;;;;;;27.88;36.59;100398.34;1769502;80;21502;-67
2021/08/14 09:33:35;;;;;;;4.12;3.27;;;;;;;27.91;35.88;100398.34;1768889;80;21143;-67
2021/08/14 09:36:06;;;;;;;7.17;3.15;;;;;;;27.94;36.08;100395.91;1770996;80;21049;-66
2021/08/14 09:38:42;;;;;;;4.75;3.20;;;;;;;27.98;36.97;100388.81;1746502;80;21038;-68
2021/08/14 09:41:14;;;;;;;4.12;3.50;;;;;;;28.04;38.19;100385.56;1759928;80;21512;-68
2021/08/14 09:43:42;;;;;;;4.60;3.20;;;;;;;28.09;37.89;100388.88;1764263;80;21612;-66
2021/08/14 09:46:09;;;;;;;4.85;3.42;;;;;;;28.14;36.65;100388.86;1769709;80;21140;-66
2021/08/14 09:48:36;;;;;;;5.22;3.08;;;;;;;28.19;35.78;100387.52;1750084;80;21046;-69
2021/08/14 09:51:03;;;;;;;5.30;3.62;;;;;;;28.23;35.98;100383.16;1742475;80;21090;-68
2021/08/14 09:53:31;;;;;;;6.42;3.30;;;;;;;28.30;36.67;100375.53;1741258;80;21634;-68
2021/08/14 09:56:11;;;;;;;3.47;3.10;;;;;;;28.35;37.57;100367.88;1763545;80;21118;-68
2021/08/14 09:58:40;;;;;;;4.60;3.33;;;;;;;28.39;38.01;100373.88;1768393;80;21197;-68
2021/08/14 10:01:07;;;;;;;3.77;2.85;;;;;;;28.45;38.07;100367.88;1766930;80;21112;-66
2021/08/14 10:03:35;;;;;;;5.70;3.25;;;;;;;28.47;37.90;100360.22;1750052;80;21101;-67
2021/08/14 10:06:02;;;;;;;4.95;3.30;;;;;;;28.50;37.65;100362.42;1744782;80;21502;-69
2021/08/14 10:08:30;;;;;;;3.58;3.27;;;;;;;28.54;37.71;100363.55;1757210;80;21006;-66
2021/08/14 10:10:57;;;;;;;3.50;3.20;;;;;;;28.58;37.71;100365.19;1742014;80;22075;-65
2021/08/14 10:13:25;;;;;;;5.53;3.05;;;;;;;28.61;36.91;100357.27;1760883;80;21150;-65
2021/08/14 10:15:53;;;;;;;5.60;3.27;;;;;;;28.66;37.25;100356.98;1766330;80;21466;-65
2021/08/14 10:18:19;;;;;;;3.85;2.92;;;;;;;28.69;37.33;100355.09;1766580;80;21031;-63
2021/08/14 10:20:47;;;;;;;5.62;3.40;;;;;;;28.73;37.00;100352.89;1758398;80;21061;-65
2021/08/14 10:23:21;;;;;;;3.70;2.50;;;;;;;28.76;36.92;100356.45;1755837;80;22032;-66
2021/08/14 10:25:47;;;;;;;;;;;;;;;28.78;35.96;100345.22;1758102;79;21054;-66
2021/08/14 10:28:15;;;;;;;6.45;3.77;;;;;;;28.82;36.69;100347.14;1764975;80;20188;-65
2021/08/14 10:30:50;;;;;;;3.87;3.00;;;;;;;28.82;37.10;100347.70;1762290;80;21105;-67
2021/08/14 10:33:32;;;;;;;2.95;2.58;;;;;;;28.86;37.16;100341.11;1752243;80;21034;-67
2021/08/14 10:36:18;;;;;;;2.95;2.67;;;;;;;28.90;37.18;100338.94;1768580;80;21206;-67
2021/08/14 10:38:50;;;;;;;3.35;3.05;;;;;;;28.93;37.11;100338.92;1759795;80;20995;-66
2021/08/14 10:41:17;;;;;;;4.33;3.10;;;;;;;28.96;37.07;100338.37;1751867;80;21069;-66
2021/08/14 10:43:57;;;;;;;3.50;3.20;;;;;;;29.00;36.84;100331.26;1751674;80;21050;-66
2021/08/14 10:46:43;;;;;;;4.35;3.20;;;;;;;29.02;36.80;100329.06;1766750;80;21037;-66
2021/08/14 10:49:28;;;;;;;3.30;3.00;;;;;;;29.05;36.74;100325.76;1757802;79;21268;-67
2021/08/14 10:52:03;;;;;;;3.02;2.75;;;;;;;29.06;36.66;100324.67;1749495;79;21586;-67
2021/08/14 10:54:42;;;;;;;4.17;3.15;;;;;;;29.09;36.51;100325.50;1769430;80;21058;-66
2021/08/14 10:57:09;;;;;;;3.08;2.77;;;;;;;29.11;36.53;100323.30;1755624;80;21580;-65
2021/08/14 10:59:42;;;;;;;3.25;2.95;;;;;;;29.13;36.52;100323.88;1762097;80;21073;-66
2021/08/14 11:02:15;;;;;;;3.58;2.98;;;;;;;29.16;36.45;100320.56;1759578;80;21084;-66
2021/08/14 11:04:57;;;;;;;3.45;3.15;;;;;;;29.19;36.44;100312.38;1775088;80;21097;-68
2021/08/14 11:07:29;;;;;;;3.20;2.83;;;;;;;29.23;36.37;100316.19;1725614;82;21057;-65
2021/08/14 11:10:03;;;;;;;3.60;3.30;;;;;;;29.27;36.29;100321.92;1753295;79;21600;-66
2021/08/14 11:12:33;;;;;;;3.98;3.60;;;;;;;29.30;36.28;100311.77;1780627;80;20987;-66
2021/08/14 11:15:25;;;;;;;3.50;3.20;;;;;;;29.34;36.36;100312.84;1772108;79;21834;-67
2021/08/14 11:18:00;;;;;;;;;;;;;;;29.38;36.36;100312.03;1765184;80;21045;-65
2021/08/14 11:20:33;;;;;;;3.67;3.37;;;;;;;29.41;36.28;100305.98;1767330;79;20210;-66
2021/08/14 11:23:07;;;;;;;4.58;3.08;;;;;;;29.39;36.28;100307.36;1778066;79;21069;-66
2021/08/14 11:25:40;;;;;;;3.42;3.12;;;;;;;29.43;36.22;100303.52;1768254;80;22107;-66
2021/08/14 11:28:11;;;;;;;4.75;3.35;;;;;;;29.48;36.20;100299.41;1773335;80;21167;-66
2021/08/14 11:30:42;;;;;;;5.08;3.55;;;;;;;29.50;35.99;100294.47;1781450;80;21039;-66
2021/08/14 11:33:10;;;;;;;3.92;2.92;;;;;;;29.52;36.03;100295.81;1777253;80;21016;-65